Latest Weather Observations for Meekatharra

IDW60801

Issued at 8:05 pm WST Thursday 23 October 2014 (issued every 30 minutes, with the page automatically refreshed every 10 minutes)

About weather observations | Map of weather stations | Latest weather observations for WA | Other Formats
Station Details ID: 007045 Name: MEEKATHARRA AIRPORT Lat: -26.61 Lon: 118.54 Height: 517.0 m
Data from the previous 72 hours. | See also: Recent months at Meekatharra
Date/Time
WST
Temp
°C
App
Temp
°C
Dew
Point
Rel
Hum
%
Delta-T
°C
Wind Press
QNH
hPa
Press
MSL
hPa
Rain
since 9 am
mm
Dir
 
Spd
km/h
Gust
km/h
Spd
kts
Gust
kts
23/08:00pm 25.3 20.9 -2.2 16 12.5 S 11 13 6 7 1016.4 - 0.0
23/07:30pm 26.3 21.5 -2.9 14 13.2 SSW 13 17 7 9 1016.1 - 0.0
23/07:00pm 27.3 22.9 -2.1 14 13.6 SSW 11 13 6 7 1015.6 - 0.0
23/06:30pm 28.2 22.2 -3.0 13 14.3 S 19 24 10 13 1015.1 - 0.0
23/06:00pm 29.5 24.0 -5.4 10 15.5 W 15 24 8 13 1014.7 1012.3 0.0
23/05:30pm 30.1 24.1 -11.3 6 16.7 SSW 15 19 8 10 1014.2 - 0.0
23/05:00pm 31.2 25.1 -8.0 7 16.9 WNW 17 26 9 14 1013.9 - 0.0
23/04:30pm 31.2 24.3 -11.1 6 17.3 W 20 28 11 15 1014.1 - 0.0
23/04:00pm 30.9 23.7 -9.3 7 16.9 SW 22 37 12 20 1014.1 - 0.0
23/03:30pm 31.7 26.2 -5.5 9 16.8 WSW 15 26 8 14 1014.1 - 0.0
23/03:00pm 30.6 25.3 -0.7 13 15.2 WSW 17 28 9 15 1014.2 1011.7 0.0
23/02:30pm 30.4 24.9 -2.1 12 15.4 WSW 17 24 9 13 1014.5 - 0.0
23/02:00pm 30.5 24.1 -1.9 12 15.4 WSW 22 33 12 18 1014.8 - 0.0
23/01:30pm 28.1 24.1 2.9 19 12.8 W 13 28 7 15 1015.1 - 0.0
23/01:00pm 28.6 24.9 2.5 18 13.2 WSW 11 20 6 11 1015.4 - 0.0
23/12:30pm 28.1 24.6 5.5 23 12.0 WSW 13 24 7 13 1015.6 - 0.0
23/12:00pm 26.2 23.1 7.2 30 10.3 SSW 13 20 7 11 1016.3 1013.9 0.0
23/11:30am 25.6 22.1 5.6 27 10.5 SW 13 19 7 10 1016.8 - 0.0
23/11:00am 24.9 22.0 8.0 34 9.2 S 13 22 7 12 1017.2 - 0.0
23/10:30am 24.6 22.8 8.1 35 9.0 S 7 13 4 7 1017.7 - 0.0
23/10:00am 22.9 20.1 8.6 40 7.8 S 13 22 7 12 1018.0 - 0.0
23/09:30am 23.0 19.7 8.2 38 8.0 SSE 15 22 8 12 1018.2 - 0.0
23/09:00am 21.4 17.8 8.4 43 7.0 S 17 26 9 14 1018.6 1016.2 0.0
23/08:30am 21.2 17.2 9.1 46 6.6 S 20 32 11 17 1018.7 - 0.0
23/08:00am 20.5 16.2 9.5 49 6.0 S 22 28 12 15 1018.4 - 0.0
23/07:30am 19.3 14.2 9.1 51 5.5 S 26 35 14 19 1018.2 - 0.0
23/07:00am 18.9 14.6 9.5 54 5.1 S 22 30 12 16 1018.0 - 0.0
23/06:30am 18.4 14.3 8.8 53 5.1 SSW 20 28 11 15 1017.8 - 0.0
23/06:00am 17.5 14.6 8.1 54 4.9 S 13 15 7 8 1017.7 1015.3 0.0
23/05:30am 17.0 14.9 8.2 56 4.6 S 9 13 5 7 1017.4 - 0.0
23/05:00am 17.5 15.3 7.9 53 5.0 S 9 15 5 8 1017.0 - 0.0
23/04:30am 18.4 13.9 5.9 44 6.3 SSW 19 30 10 16 1016.8 - 0.0
23/04:00am 19.0 13.7 5.2 40 6.9 SSW 22 30 12 16 1016.8 - 0.0
23/03:30am 20.1 14.1 3.1 32 8.2 SSW 24 32 13 17 1016.6 - 0.0
23/03:00am 20.4 16.0 2.7 31 8.5 WSW 15 20 8 11 1016.5 1014.1 0.0
23/02:30am 20.5 16.5 2.6 30 8.6 WSW 13 15 7 8 1016.4 - 0.0
23/02:00am 21.1 17.4 2.6 29 8.9 WSW 11 13 6 7 1016.3 - 0.0
23/01:30am 22.1 17.6 2.2 27 9.6 WSW 15 17 8 9 1016.2 - 0.0
23/01:00am 22.9 18.0 2.3 26 10.0 WSW 17 24 9 13 1016.3 - 0.0
23/12:30am 23.3 19.0 3.4 27 9.9 WSW 15 20 8 11 1016.4 - 0.0
23/12:00am 24.0 19.7 6.9 33 9.1 W 19 26 10 14 1016.5 1014.1 0.0
 
Date/Time
WST
Temp
°C
App
Temp
°C
Dew
Point
Rel
Hum
%
Delta-T
°C
Wind Press
QNH
hPa
Press
MSL
hPa
Rain
since 9 am
mm
Dir
 
Spd
km/h
Gust
km/h
Spd
kts
Gust
kts
22/11:30pm 24.4 21.4 7.5 34 9.1 W 13 19 7 10 1016.5 - 0.0
22/11:00pm 25.2 21.7 7.2 31 9.7 WNW 15 20 8 11 1016.7 - 0.0
22/10:30pm 25.0 22.6 6.8 31 9.7 WNW 9 11 5 6 1016.8 - 0.0
22/10:00pm 26.1 23.1 5.8 27 10.7 WNW 11 15 6 8 1017.0 - 0.0
22/09:30pm 27.0 23.4 5.0 24 11.5 WNW 13 20 7 11 1017.1 - 0.0
22/09:00pm 27.4 23.3 4.5 23 11.9 NW 15 19 8 10 1017.1 1014.7 0.0
22/08:30pm 27.8 22.8 3.7 21 12.4 NW 19 24 10 13 1017.1 - 0.0
22/08:00pm 27.9 23.6 3.5 21 12.5 NW 15 19 8 10 1016.9 - 0.0
22/07:30pm 28.1 23.7 2.5 19 12.9 NW 15 20 8 11 1016.7 - 0.0
22/07:00pm 28.7 23.4 1.6 17 13.5 NW 19 24 10 13 1016.4 - 0.0
22/06:30pm 29.4 23.3 0.5 15 14.2 NW 22 28 12 15 1016.1 - 0.0
22/06:00pm 30.4 23.6 0.5 14 14.8 NW 26 35 14 19 1015.8 1013.4 0.0
22/05:30pm 30.6 23.7 0.1 14 15.0 NNW 26 35 14 19 1015.7 - 0.0
22/05:00pm 30.8 23.5 0.2 14 15.1 NW 28 35 15 19 1015.8 - 0.0
22/04:30pm 30.4 23.6 0.5 14 14.8 NNW 26 33 14 18 1015.7 - 0.0
22/04:00pm 30.4 23.4 -0.4 13 15.0 NNW 26 35 14 19 1015.7 - 0.0
22/03:30pm 30.7 23.3 -0.5 13 15.2 NNW 28 39 15 21 1015.8 - 0.0
22/03:00pm 30.9 23.5 -0.4 13 15.3 NNW 28 39 15 21 1015.9 1013.5 0.0
22/02:30pm 31.3 24.7 -0.2 13 15.5 NW 24 33 13 18 1016.2 - 0.0
22/02:00pm 31.2 23.6 -1.9 11 15.8 NW 28 41 15 22 1016.4 - 0.0
22/01:30pm 31.0 24.4 -0.2 13 15.3 WNW 24 41 13 22 1016.6 - 0.0
22/01:00pm 30.6 24.9 0.5 14 14.9 WNW 20 32 11 17 1016.9 - 0.0
22/12:30pm 29.9 23.5 0.9 15 14.4 W 24 33 13 18 1017.3 - 0.0
22/12:00pm 29.9 23.8 0.4 15 14.5 NW 22 33 12 18 1017.6 1015.2 0.0
22/11:30am 29.2 22.2 2.0 17 13.7 NW 28 41 15 22 1018.2 - 0.0
22/11:00am 29.4 21.6 -0.8 14 14.5 NW 30 43 16 23 1018.2 - 0.0
22/10:30am 29.8 22.8 -0.7 14 14.7 NNW 26 39 14 21 1018.2 - 0.0
22/10:00am 29.3 22.5 -1.5 13 14.6 N 24 32 13 17 1018.2 - 0.0
22/09:30am 28.6 21.8 -2.0 13 14.3 N 24 32 13 17 1018.6 - 0.0
22/09:00am 28.2 21.5 -0.8 15 13.8 N 24 35 13 19 1018.5 1016.1 0.0
22/08:30am 27.2 20.8 0.9 18 12.8 N 24 37 13 20 1018.2 - 0.0
22/08:00am 25.7 19.0 1.5 20 11.8 N 26 44 14 24 1018.2 - 0.0
22/07:30am 25.0 18.9 2.9 23 11.0 NNE 24 35 13 19 1017.7 - 0.0
22/07:00am 23.0 18.0 4.7 30 9.3 NNE 20 32 11 17 1017.6 - 0.0
22/06:30am 21.6 17.0 5.8 35 8.1 NE 19 24 10 13 1017.5 - 0.0
22/06:00am 21.1 16.9 5.9 37 7.8 NE 17 24 9 13 1017.3 1014.9 0.0
22/05:30am 21.4 16.8 5.5 35 8.1 NE 19 28 10 15 1016.9 - 0.0
22/05:00am 21.2 17.3 5.2 35 8.1 NE 15 20 8 11 1016.7 - 0.0
22/04:30am 20.3 16.5 6.0 39 7.3 ENE 15 20 8 11 1016.3 - 0.0
22/04:00am 20.6 17.6 6.0 38 7.5 ENE 11 13 6 7 1015.8 - 0.0
22/03:30am 21.7 17.6 6.0 36 8.1 E 17 24 9 13 1015.7 - 0.0
22/03:00am 22.1 17.5 5.8 34 8.4 E 19 26 10 14 1015.7 1013.3 0.0
22/02:30am 21.7 17.9 6.0 36 8.1 E 15 19 8 10 1016.1 - 0.0
22/02:00am 22.5 18.7 5.6 33 8.7 E 15 20 8 11 1016.2 - 0.0
22/01:30am 23.3 18.0 5.2 31 9.3 E 22 30 12 16 1016.2 - 0.0
22/01:00am 23.3 18.4 4.9 30 9.4 E 20 28 11 15 1016.1 - 0.0
22/12:30am 23.6 18.8 4.5 29 9.7 E 19 24 10 13 1016.2 - 0.0
22/12:00am 23.6 18.7 4.2 28 9.8 E 19 26 10 14 1016.4 1014.0 0.0
 
Date/Time
WST
Temp
°C
App
Temp
°C
Dew
Point
Rel
Hum
%
Delta-T
°C
Wind Press
QNH
hPa
Press
MSL
hPa
Rain
since 9 am
mm
Dir
 
Spd
km/h
Gust
km/h
Spd
kts
Gust
kts
21/11:30pm 23.0 18.7 5.3 31 9.1 E 17 20 9 11 1016.7 - 0.0
21/11:00pm 24.0 20.3 4.6 28 9.9 E 13 17 7 9 1017.2 - 0.0
21/10:30pm 24.7 20.5 4.0 26 10.5 E 15 20 8 11 1017.4 - 0.0
21/10:00pm 25.4 20.6 2.6 22 11.3 E 17 20 9 11 1017.7 - 0.0
21/09:30pm 26.2 21.9 0.7 19 12.3 NE 13 17 7 9 1017.9 - 0.0
21/09:00pm 26.5 22.1 0.2 18 12.6 NNE 13 15 7 8 1018.0 1015.7 0.0
21/08:30pm 25.4 21.8 3.0 23 11.2 NNE 11 11 6 6 1018.0 - 0.0
21/08:00pm 26.3 22.9 4.0 23 11.4 NNE 11 11 6 6 1017.9 - 0.0
21/07:30pm 27.1 23.8 2.6 20 12.3 NNE 9 9 5 5 1017.9 - 0.0
21/07:00pm 28.2 24.3 1.3 17 13.3 NNE 11 11 6 6 1017.7 - 0.0
21/06:30pm 29.3 26.2 1.4 16 13.9 NNE 7 11 4 6 1017.4 - 0.0
21/06:00pm 30.3 27.3 1.0 15 14.6 NNE 6 13 3 7 1017.2 1014.8 0.0
21/05:30pm 31.4 27.1 -4.4 9 16.4 N 9 17 5 9 1017.0 - 0.0
21/05:00pm 31.4 28.2 -0.4 13 15.6 NE 6 15 3 8 1016.9 - 0.0
21/04:30pm 31.5 27.5 -2.0 11 16.0 ENE 9 15 5 8 1017.0 - 0.0
21/04:00pm 31.5 26.7 0.3 13 15.5 ENE 15 22 8 12 1017.0 - 0.0
21/03:30pm 31.8 27.5 -4.7 9 16.7 N 9 13 5 7 1017.0 - 0.0
21/03:00pm 31.8 25.9 -5.3 9 16.8 N 17 28 9 15 1017.2 1014.8 0.0
21/02:30pm 31.7 26.9 -2.4 11 16.2 NNW 13 22 7 12 1017.6 - 0.0
21/02:00pm 30.2 26.9 2.3 17 14.2 NNE 9 19 5 10 1017.9 - 0.0
21/01:30pm 30.6 25.7 -0.8 13 15.2 NW 15 24 8 13 1018.6 - 0.0
21/01:00pm 30.4 25.9 0.0 14 14.9 NNW 13 24 7 13 1019.0 - 0.0
21/12:30pm 30.7 26.3 0.3 14 15.0 N 13 17 7 9 1019.4 - 0.0
21/12:00pm 30.5 24.4 -2.5 11 15.5 NNW 20 26 11 14 1019.9 1017.6 0.0
21/11:30am 30.1 25.6 -0.4 14 14.8 NNE 13 19 7 10 1020.5 - 0.0
21/11:00am 28.9 26.4 4.8 21 12.7 E 7 13 4 7 1020.8 - 0.0
21/10:30am 27.7 23.3 4.7 23 12.0 E 17 24 9 13 1021.0 - 0.0
21/10:00am 27.0 22.2 4.7 24 11.6 E 19 24 10 13 1021.2 - 0.0
21/09:30am 25.7 21.1 5.4 27 10.6 E 19 30 10 16 1021.3 - 0.0
21/09:00am 24.8 19.9 5.3 28 10.1 E 20 30 11 16 1021.3 1019.0 0.0
21/08:30am 23.5 17.5 5.2 30 9.4 ESE 26 32 14 17 1021.1 - 0.0
21/08:00am 22.2 16.0 4.5 31 8.9 E 26 35 14 19 1021.2 - 0.0
21/07:30am 21.2 15.4 4.6 33 8.3 E 24 33 13 18 1021.0 - 0.0
21/07:00am 19.6 14.7 4.9 38 7.3 E 20 28 11 15 1020.7 - 0.0
21/06:30am 18.4 14.0 4.8 40 6.7 SSE 17 22 9 12 1020.6 - 0.0
21/06:00am 16.7 13.7 6.1 49 5.3 S 11 15 6 8 1020.3 1017.9 0.0
21/05:30am 15.6 13.0 5.9 52 4.8 S 9 13 5 7 1019.8 - 0.0
21/05:00am 16.1 13.0 5.5 49 5.2 S 11 17 6 9 1019.5 - 0.0
21/04:30am 16.7 13.2 5.3 47 5.6 S 13 17 7 9 1019.2 - 0.0
21/04:00am 16.7 13.2 5.3 47 5.6 S 13 17 7 9 1018.8 - 0.0
21/03:30am 17.1 13.2 5.4 46 5.8 S 15 19 8 10 1018.5 - 0.0
21/03:00am 17.6 13.2 4.7 42 6.3 S 17 22 9 12 1018.4 1016.0 0.0
21/02:30am 18.1 13.6 4.4 40 6.7 SSW 17 24 9 13 1018.3 - 0.0
21/02:00am 18.3 14.0 3.5 37 7.1 SW 15 20 8 11 1018.3 - 0.0
21/01:30am 17.9 13.6 3.5 38 6.9 SW 15 19 8 10 1018.3 - 0.0
21/01:00am 17.5 14.1 4.0 40 6.5 SW 11 15 6 8 1018.5 - 0.0
21/12:30am 18.1 14.3 3.8 38 6.9 SW 13 15 7 8 1018.6 - 0.0
21/12:00am 18.1 15.0 3.8 38 6.9 SW 9 9 5 5 1018.7 1016.3 0.0
 
Date/Time
WST
Temp
°C
App
Temp
°C
Dew
Point
Rel
Hum
%
Delta-T
°C
Wind Press
QNH
hPa
Press
MSL
hPa
Rain
since 9 am
mm
Dir
 
Spd
km/h
Gust
km/h
Spd
kts
Gust
kts
20/11:30pm 18.7 15.2 3.5 36 7.3 SW 11 11 6 6 1018.9 - 0.0
20/11:00pm 19.8 16.2 2.9 32 8.1 SW 11 13 6 7 1019.2 - 0.0
20/10:30pm 20.7 16.7 2.6 30 8.7 SW 13 19 7 10 1019.2 - 0.0
20/10:00pm 20.6 17.5 3.6 32 8.3 SW 9 11 5 6 1019.3 - 0.0
20/09:30pm 22.3 18.6 2.1 26 9.7 SW 11 13 6 7 1019.3 - 0.0
20/09:00pm 22.9 19.3 2.9 27 9.8 SW 11 13 6 7 1019.4 1017.0 0.0
20/08:30pm 23.9 19.9 2.8 25 10.4 SW 13 17 7 9 1019.1 - 0.0

Other Formats:

Comma delimited format used in spreadsheet applications
http://www.bom.gov.au/fwo/IDW60801/IDW60801.94430.axf

JavaScript Object Notation format (JSON) in row-major order
http://www.bom.gov.au/fwo/IDW60801/IDW60801.94430.json